Record high temperature 32.7°C Record low temperature 7.4°C Record high gust 41.1 mph Record high average 24.2 mph Record daily rain 12.6 mm Record low windchill 5.1°C Record high barometer 1038.3 hPa Record low barometer 997.7 hPa
Daily high pressure 1008.1 hPa Daily low pressure 1004.5 hPa Daily low windchill 15.3°C Daily high heat index 16.9°C Daily high gust speed 21.0 mph S Daily high average speed 13.1 mph SW
Seaford Weather Data
LAST READING AT TIME: 10:00 AM DATE: 23 September 2020, time of next update: 10:30 am
Current WeatherMainly cloudy/Dry Current Temperature 16.9°C (62.4°F), Apparent temp 16.9°C, Apparent temp solar 20.5°C
Maximum Temperature (since midnight)16.9°C at: 9:50 AM Minimum Temperature (since midnight)15.3°C at: 6:02 AM
Average windspeed (ten minute)6.8 mph Wind Direction (ten minute)SW (225°)
Windchill Temperature 16.9°C Maximum Gust (last hour)14.0 mph at: 9:54 AM
Maximum Gust (since midnight)21.0 mph at: 4:01 AM Maximum 1 minute average (since midnight)13.1 mph at: 5:45 AM
Rainfall (last hour)0.0 mm Rainfall (since midnight)6.2 mm (0.24 in.) at 5:58 AM
Rainfall This month 8.2 mm (0.32 in.) Rainfall To date this year 510.2 mm (20.09 in.)
Maximum rain per minute (last hour)0.0 mm/min Maximum rain per hour (last 6 hours)1.2 mm/hour
Yesterdays rainfall 0.0 mm DewPoint 15.1°C (Wet Bulb :15.8°C )
Humidity 89 %, Humidex 20.9°C Barometer corrected to msl1004.8 hPa
Pressure change 0.1 hPa (last hour) Trend (last hour)STEADY
Pressure change (last 12 hours)-4.0 hPa Pressure change (last 6 hours)-0.7 hPa
Current 00:40 hours of sunshine today, current sky: Mainly cloudy
Sunshine hours for the year: 617:04 hrs Sunshine hours for the month: 58:06 hrs
Current evapotranspiration rate 0.7 mm per day. Yesterday's reading 2.5



Weather report/warning/Metars

Shoreham Airport, United Kingdom (EGKA) 50-50N 000-17W 0M
Sep 23, 2020 - 04:20 AM EDT / 2020.09.23 0820 UTC
Wind: from the SW (220 degrees) at 15 MPH (13 KT):0
Visibility: greater than 7 mile(s):0
Sky conditions: partly cloudy
Temperature: 64 F (18 C)
Dew Point: 60 F (16 C)
Relative Humidity: 88%
Pressure (altimeter): 29.59 in. Hg (1002 hPa)
ob: EGKA 230820Z 22013KT 9999 SCT013 18/16 Q1002
cycle: 8
Yeovilton, United Kingdom (EGDY) 51-00N 002-38W 0M
Sep 23, 2020 - 04:20 AM EDT / 2020.09.23 0820 UTC
Wind: from the SSW (210 degrees) at 6 MPH (5 KT):0
Visibility: greater than 7 mile(s):0
Sky conditions: mostly cloudy
Weather: rain
Temperature: 60 F (16 C)
Dew Point: 59 F (15 C)
Relative Humidity: 93%
Pressure (altimeter): 29.53 in. Hg (1000 hPa)
ob: EGDY 230820Z 21005KT 9999 RA SCT012 SCT030 BKN050 16/15 Q1000 NOSIG RMK GRN GRN
cycle: 8
Luton Airport , United Kingdom (EGGW) 51-52N 000-22W
Sep 23, 2020 - 04:20 AM EDT / 2020.09.23 0820 UTC
Wind: from the SSW (210 degrees) at 9 MPH (8 KT):0
Visibility: greater than 7 mile(s):0
Sky conditions: overcast
Temperature: 59 F (15 C)
Dew Point: 57 F (14 C)
Relative Humidity: 93%
Pressure (altimeter): 29.56 in. Hg (1001 hPa)
ob: EGGW 230820Z AUTO 21008KT 9999 BKN005 OVC009 15/14 Q1001
cycle: 8
Bournemouth Airport, United Kingdom (EGHH) 50-47N 001-50W 0M
Sep 23, 2020 - 04:20 AM EDT / 2020.09.23 0820 UTC
Wind: from the SSW (210 degrees) at 10 MPH (9 KT):0
Visibility: greater than 7 mile(s):0
Sky conditions: partly cloudy
Temperature: 62 F (17 C)
Dew Point: 57 F (14 C)
Relative Humidity: 82%
Pressure (altimeter): 29.56 in. Hg (1001 hPa)
ob: EGHH 230820Z 21009KT 9999 FEW007 SCT024 17/14 Q1001
cycle: 8
Guernsey Airport, United Kingdom (EGJB) 49-26N 002-36W 0M
Sep 23, 2020 - 04:20 AM EDT / 2020.09.23 0820 UTC
Wind: from the SSW (210 degrees) at 16 MPH (14 KT):0
Visibility: greater than 7 mile(s):0
Sky conditions: partly cloudy
Temperature: 60 F (16 C)
Dew Point: 59 F (15 C)
Relative Humidity: 93%
Pressure (altimeter): 29.62 in. Hg (1003 hPa)
ob: EGJB 230820Z 21014KT 9999 SCT010 SCT040 16/15 Q1003
cycle: 8
Jersey Airport, United Kingdom (EGJJ) 49-13N 002-12W 0M
Sep 23, 2020 - 04:20 AM EDT / 2020.09.23 0820 UTC
Wind: from the SSW (210 degrees) at 16 MPH (14 KT):0
Visibility: greater than 7 mile(s):0
Sky conditions: mostly clear
Weather: showers in the vicinity
Temperature: 62 F (17 C)
Dew Point: 59 F (15 C)
Relative Humidity: 88%
Pressure (altimeter): 29.65 in. Hg (1004 hPa)
ob: EGJJ 230820Z 21014KT 9999 VCSH FEW013 17/15 Q1004
cycle: 8
London / Gatwick Airport, United Kingdom (EGKK) 51-09N 000-11W 0M
Sep 23, 2020 - 04:20 AM EDT / 2020.09.23 0820 UTC
Wind: from the SSW (210 degrees) at 8 MPH (7 KT) (direction variable):0
Visibility: greater than 7 mile(s):0
Sky conditions: mostly cloudy
Temperature: 60 F (16 C)
Dew Point: 59 F (15 C)
Relative Humidity: 93%
Pressure (altimeter): 29.59 in. Hg (1002 hPa)
ob: EGKK 230820Z 21007KT 170V240 9999 SCT009 BKN012 16/15 Q1002
cycle: 8
London / Heathrow Airport, United Kingdom (EGLL) 51-29N 000-27W 0M
Sep 23, 2020 - 04:20 AM EDT / 2020.09.23 0820 UTC
Wind: from the SW (220 degrees) at 9 MPH (8 KT):0
Visibility: greater than 7 mile(s):0
Temperature: 60 F (16 C)
Dew Point: 59 F (15 C)
Relative Humidity: 93%
Pressure (altimeter): 29.56 in. Hg (1001 hPa)
ob: EGLL 230820Z AUTO 22008KT 9999 NCD 16/15 Q1001 NOSIG
cycle: 8
Southend-On-Sea , United Kingdom (EGMC) 51-34N 000-42E
Sep 23, 2020 - 04:20 AM EDT / 2020.09.23 0820 UTC
Wind: from the SW (230 degrees) at 13 MPH (11 KT):0
Visibility: greater than 7 mile(s):0
Sky conditions: partly cloudy
Temperature: 62 F (17 C)
Dew Point: 59 F (15 C)
Relative Humidity: 88%
Pressure (altimeter): 29.56 in. Hg (1001 hPa)
ob: EGMC 230820Z 23011KT 9999 FEW017 SCT042 17/15 Q1001
cycle: 8
Lydd Airport , United Kingdom (EGMD) 50-57N 000-56E
Sep 23, 2020 - 04:20 AM EDT / 2020.09.23 0820 UTC
Wind: from the SW (230 degrees) at 15 MPH (13 KT):0
Visibility: greater than 7 mile(s):0
Sky conditions: mostly clear
Temperature: 64 F (18 C)
Dew Point: 60 F (16 C)
Relative Humidity: 88%
Pressure (altimeter): 29.62 in. Hg (1003 hPa)
ob: EGMD 230820Z 23013KT 9999 FEW011 18/16 Q1003
cycle: 8
Glasgow Airport, United Kingdom (EGPF) 55-52N 004-26W 0M
Sep 23, 2020 - 04:20 AM EDT / 2020.09.23 0820 UTC
Wind: Variable at 1 MPH (1 KT):0
Visibility: greater than 7 mile(s):0
Temperature: 46 F (8 C)
Dew Point: 42 F (6 C)
Relative Humidity: 87%
Pressure (altimeter): 29.59 in. Hg (1002 hPa)
ob: EGPF 230820Z AUTO VRB01KT 9999 NCD 08/06 Q1002
cycle: 8
Stansted Airport, United Kingdom (EGSS) 51-53N 000-14E 0M
Sep 23, 2020 - 04:20 AM EDT / 2020.09.23 0820 UTC
Wind: from the SW (230 degrees) at 9 MPH (8 KT):0
Visibility: greater than 7 mile(s):0
Sky conditions: overcast
Temperature: 60 F (16 C)
Dew Point: 59 F (15 C)
Relative Humidity: 93%
Pressure (altimeter): 29.56 in. Hg (1001 hPa)
ob: EGSS 230820Z AUTO 23008KT 9999 BKN007 OVC028 16/15 Q1001
cycle: 8
Brize Norton, United Kingdom (EGVN) 51-45N 001-35W 0M
Sep 23, 2020 - 04:20 AM EDT / 2020.09.23 0820 UTC
Wind: from the SSW (200 degrees) at 8 MPH (7 KT):0
Visibility: greater than 7 mile(s):0
Sky conditions: partly cloudy
Temperature: 59 F (15 C)
Dew Point: 55 F (13 C)
Relative Humidity: 87%
Pressure (altimeter): 29.53 in. Hg (1000 hPa)
ob: EGVN 230820Z 20007KT 9999 FEW008 SCT040 15/13 Q1000 TEMPO -RA SCT008 RMK BLU TEMPO GRN
cycle: 8



The data is logged at two minute intervals, but there is data recorded every minute. On the graph, the Blue line represents the average windspeed, the Red line is the maximum gust for that interval, and the Green line is what the wind has dropped off to in the same interval. Fuschia is the Barometer, and the dew point and Blue is humidity.

Use the RELOAD facility on your browser to retrieve the latest data.

Click here for a daily update of the averages/extremes to date for the month

Check *Live* Weather

Created by "Weather Display" software version 10.37S at this start time/date 09:51:37 27/08/2020